createdAt,value
2018-11-11T00:00:18.333Z,16.83
2018-11-11T00:05:20.914Z,17.20
2018-11-11T00:10:23.222Z,16.40
2018-11-11T00:15:25.574Z,17.50
2018-11-11T00:20:27.860Z,15.60
2018-11-11T00:25:30.124Z,15.37
2018-11-11T00:30:32.360Z,14.93
2018-11-11T00:35:34.634Z,14.80
2018-11-11T00:40:37.647Z,16.10
2018-11-11T00:45:39.886Z,14.60
2018-11-11T00:50:42.166Z,14.97
2018-11-11T00:55:44.408Z,14.23
2018-11-11T01:00:46.640Z,14.63
2018-11-11T01:05:48.949Z,12.83
2018-11-11T01:10:51.177Z,13.80
2018-11-11T01:15:53.418Z,13.47
2018-11-11T01:20:55.804Z,14.13
2018-11-11T01:25:58.045Z,14.00
2018-11-11T01:31:00.315Z,13.58
2018-11-11T01:36:02.620Z,13.07
2018-11-11T01:41:05.208Z,14.10
2018-11-11T01:46:07.572Z,12.97
2018-11-11T01:51:09.855Z,13.73
2018-11-11T01:56:12.100Z,13.40
2018-11-11T02:01:14.345Z,13.20
2018-11-11T02:06:16.597Z,13.63
2018-11-11T02:11:18.855Z,13.00
2018-11-11T02:16:21.110Z,13.68
2018-11-11T02:21:23.390Z,13.30
2018-11-11T02:26:25.632Z,13.50
2018-11-11T02:31:27.942Z,14.47
2018-11-11T02:36:30.181Z,13.58
2018-11-11T02:41:32.453Z,13.53
2018-11-11T02:46:34.735Z,13.73
2018-11-11T02:51:37.039Z,13.83
2018-11-11T02:56:39.244Z,13.93
2018-11-11T03:01:41.472Z,14.13
2018-11-11T03:06:43.701Z,14.03
2018-11-11T03:11:45.917Z,15.83
2018-11-11T03:16:48.128Z,15.17
2018-11-11T03:21:50.395Z,14.83
2018-11-11T03:26:52.647Z,14.37
2018-11-11T03:31:54.935Z,14.33
2018-11-11T03:36:57.139Z,15.30
2018-11-11T03:41:59.679Z,15.20
2018-11-11T03:47:01.902Z,15.53
2018-11-11T03:52:04.525Z,14.97
2018-11-11T03:57:06.745Z,14.87
2018-11-11T04:02:09.009Z,15.03
2018-11-11T04:07:11.275Z,14.10
2018-11-11T04:12:13.584Z,15.17
2018-11-11T04:17:15.886Z,14.93
2018-11-11T04:22:19.261Z,16.17
2018-11-11T04:27:21.541Z,15.73
2018-11-11T04:32:23.846Z,15.33
2018-11-11T04:37:26.180Z,15.87
2018-11-11T04:42:28.492Z,14.77
2018-11-11T04:47:30.798Z,15.77
2018-11-11T04:52:33.129Z,15.70
2018-11-11T04:57:35.428Z,15.33
2018-11-11T05:02:37.742Z,15.47
2018-11-11T05:07:40.196Z,15.70
2018-11-11T05:12:42.477Z,16.80
2018-11-11T05:17:44.845Z,15.93
2018-11-11T05:22:47.599Z,16.43
2018-11-11T05:27:49.904Z,16.47
2018-11-11T05:32:52.190Z,16.57
2018-11-11T05:37:55.502Z,17.80
2018-11-11T05:42:58.510Z,17.73
2018-11-11T05:48:00.862Z,17.23
2018-11-11T05:53:03.222Z,18.60
2018-11-11T05:58:05.691Z,18.27
2018-11-11T06:03:07.994Z,17.33
2018-11-11T06:08:10.306Z,17.53
2018-11-11T06:13:12.589Z,17.90
2018-11-11T06:18:14.862Z,18.83
2018-11-11T06:23:17.269Z,17.67
2018-11-11T06:28:19.565Z,18.00
2018-11-11T06:33:21.848Z,18.53
2018-11-11T06:38:24.127Z,19.03
2018-11-11T06:43:26.421Z,18.63
2018-11-11T06:48:28.716Z,17.77
2018-11-11T06:53:31.074Z,18.27
2018-11-11T06:58:33.388Z,18.67
2018-11-11T07:03:51.189Z,17.47
2018-11-11T07:08:53.518Z,17.67
2018-11-11T07:13:55.887Z,17.17
2018-11-11T07:19:00.652Z,16.90
2018-11-11T07:24:03.335Z,16.47
2018-11-11T07:29:06.375Z,16.67
2018-11-11T07:34:08.718Z,16.50
2018-11-11T07:39:12.730Z,17.17
2018-11-11T07:44:15.142Z,15.83
2018-11-11T07:49:17.702Z,16.13
2018-11-11T07:54:20.106Z,16.73
2018-11-11T07:59:22.534Z,16.03
2018-11-11T08:04:24.902Z,17.23
2018-11-11T08:09:27.283Z,16.10
2018-11-11T08:14:29.769Z,16.80
2018-11-11T08:19:32.084Z,17.57
2018-11-11T08:24:34.464Z,15.85
2018-11-11T08:29:36.830Z,16.17
2018-11-11T08:34:40.165Z,15.70
2018-11-11T08:39:42.450Z,15.50
2018-11-11T08:44:44.737Z,15.43
2018-11-11T08:49:47.424Z,15.47
2018-11-11T08:54:49.787Z,15.10
2018-11-11T08:59:52.077Z,15.60
2018-11-11T09:04:54.483Z,14.83
2018-11-11T09:09:56.858Z,14.73
2018-11-11T09:14:59.269Z,14.03
2018-11-11T09:20:01.711Z,14.87
2018-11-11T09:25:04.873Z,15.33
2018-11-11T09:30:09.166Z,14.87
2018-11-11T09:35:11.654Z,15.67
2018-11-11T09:40:14.093Z,15.15
2018-11-11T09:45:16.478Z,15.53
2018-11-11T09:50:18.775Z,16.00
2018-11-11T09:55:21.190Z,17.17
2018-11-11T10:00:23.772Z,18.20
2018-11-11T10:05:31.749Z,15.67
2018-11-11T10:10:42.487Z,16.23
2018-11-11T10:16:53.518Z,15.68
2018-11-11T10:24:04.567Z,14.15
2018-11-11T10:29:13.972Z,16.87
2018-11-11T10:34:21.664Z,14.65
2018-11-11T10:39:30.180Z,11.70
2018-11-11T10:44:41.696Z,10.32
2018-11-11T10:49:54.008Z,10.38
2018-11-11T10:54:56.321Z,9.80
2018-11-11T10:59:58.758Z,8.48
2018-11-11T11:05:06.855Z,7.78
2018-11-11T11:10:09.285Z,7.70
2018-11-11T11:15:11.626Z,7.75
2018-11-11T11:20:14.059Z,6.33
2018-11-11T11:25:16.449Z,5.60
2018-11-11T11:30:18.816Z,4.92
2018-11-11T11:35:21.218Z,4.50
2018-11-11T11:40:23.533Z,4.58
2018-11-11T11:45:25.949Z,4.78
2018-11-11T11:50:28.446Z,3.58
2018-11-11T11:55:30.699Z,4.20
2018-11-11T12:00:33.151Z,3.60
2018-11-11T12:05:35.480Z,3.95
2018-11-11T12:10:37.839Z,4.22
2018-11-11T12:15:40.874Z,4.22
2018-11-11T12:20:43.258Z,3.17
2018-11-11T12:25:45.610Z,3.87
2018-11-11T12:30:48.070Z,3.37
2018-11-11T12:35:50.359Z,3.50
2018-11-11T12:40:52.676Z,3.70
2018-11-11T12:45:55.594Z,3.50
2018-11-11T12:50:58.425Z,3.25
2018-11-11T12:56:00.720Z,3.58
2018-11-11T13:01:03.104Z,3.60
2018-11-11T13:06:05.485Z,3.42
2018-11-11T13:11:08.253Z,3.60
2018-11-11T13:16:10.974Z,3.70
2018-11-11T13:21:14.266Z,3.25
2018-11-11T13:26:17.286Z,3.15
2018-11-11T13:31:19.736Z,2.90
2018-11-11T13:36:22.115Z,3.00
2018-11-11T13:41:25.010Z,2.90
2018-11-11T13:46:29.273Z,2.98
2018-11-11T13:51:31.525Z,3.05
2018-11-11T13:56:33.832Z,2.85
2018-11-11T14:01:37.545Z,2.72
2018-11-11T14:06:39.894Z,3.20
2018-11-11T14:11:42.225Z,3.08
2018-11-11T14:16:44.604Z,3.10
2018-11-11T14:21:47.009Z,3.72
2018-11-11T14:26:49.494Z,3.45
2018-11-11T14:31:51.867Z,3.72
2018-11-11T14:36:54.424Z,4.95
2018-11-11T14:41:56.752Z,4.45
2018-11-11T14:46:59.056Z,5.15
2018-11-11T14:52:01.525Z,4.92
2018-11-11T14:57:03.856Z,5.80
2018-11-11T15:02:06.352Z,5.53
2018-11-11T15:07:09.114Z,5.97
2018-11-11T15:12:11.481Z,5.00
2018-11-11T15:17:13.893Z,5.15
2018-11-11T15:22:16.258Z,5.55
2018-11-11T15:27:18.567Z,5.95
2018-11-11T15:32:21.049Z,5.70
2018-11-11T15:37:23.344Z,5.50
2018-11-11T15:42:25.917Z,5.67
2018-11-11T15:47:28.206Z,5.70
2018-11-11T15:52:30.604Z,5.70
2018-11-11T15:57:32.914Z,5.35
2018-11-11T16:02:35.318Z,5.80
2018-11-11T16:07:38.349Z,5.67
2018-11-11T16:12:40.869Z,6.10
2018-11-11T16:17:44.045Z,6.92
2018-11-11T16:22:47.661Z,6.60
2018-11-11T16:27:50.180Z,6.60
2018-11-11T16:32:53.106Z,6.95
2018-11-11T16:37:55.672Z,7.78
2018-11-11T16:42:58.589Z,7.45
2018-11-11T16:48:01.013Z,7.87
2018-11-11T16:53:05.536Z,8.50
2018-11-11T16:58:07.822Z,7.83
2018-11-11T17:03:10.865Z,7.28
2018-11-11T17:08:13.193Z,8.20
2018-11-11T17:13:15.491Z,8.50
2018-11-11T17:18:17.808Z,9.00
2018-11-11T17:23:20.293Z,9.55
2018-11-11T17:28:23.754Z,9.43
2018-11-11T17:33:26.081Z,10.18
2018-11-11T17:38:28.485Z,9.93
2018-11-11T17:43:31.520Z,9.65
2018-11-11T17:48:33.853Z,9.10
2018-11-11T17:53:36.162Z,9.20
2018-11-11T17:58:38.474Z,8.90
2018-11-11T18:03:40.908Z,9.50
2018-11-11T18:08:43.230Z,9.23
2018-11-11T18:13:45.556Z,9.00
2018-11-11T18:18:47.890Z,10.03
2018-11-11T18:23:50.417Z,9.65
2018-11-11T18:28:52.726Z,9.70
2018-11-11T18:33:55.161Z,9.98
2018-11-11T18:38:57.492Z,9.48
2018-11-11T18:43:59.981Z,8.90
2018-11-11T18:49:02.298Z,9.43
2018-11-11T18:54:04.663Z,9.33
2018-11-11T18:59:07.193Z,9.50
2018-11-11T19:04:09.704Z,9.68
2018-11-11T19:09:14.481Z,9.55
2018-11-11T19:14:16.837Z,11.05
2018-11-11T19:19:19.301Z,10.20
2018-11-11T19:24:21.652Z,9.98
2018-11-11T19:29:24.005Z,9.65
2018-11-11T19:34:26.354Z,9.58
2018-11-11T19:39:28.745Z,9.48
2018-11-11T19:44:31.026Z,10.10
2018-11-11T19:49:33.430Z,9.53
2018-11-11T19:54:35.717Z,10.20
2018-11-11T19:59:38.100Z,10.25
2018-11-11T20:04:40.496Z,10.40
2018-11-11T20:09:42.775Z,9.40
2018-11-11T20:14:45.170Z,10.05
2018-11-11T20:19:47.466Z,9.73
2018-11-11T20:24:49.745Z,10.32
2018-11-11T20:29:52.127Z,11.10
2018-11-11T20:34:54.571Z,11.30
2018-11-11T20:39:57.054Z,11.75
2018-11-11T20:44:59.329Z,10.80
2018-11-11T20:50:01.751Z,11.80
2018-11-11T20:55:05.336Z,11.87
2018-11-11T21:00:09.677Z,11.53
2018-11-11T21:05:13.434Z,12.00
2018-11-11T21:10:20.177Z,11.93
2018-11-11T21:15:23.726Z,11.88
2018-11-11T21:20:27.406Z,12.03
2018-11-11T21:25:29.799Z,12.20
2018-11-11T21:30:32.656Z,12.07
2018-11-11T21:35:35.050Z,12.05
2018-11-11T21:40:37.345Z,11.93
2018-11-11T21:45:39.758Z,11.88
2018-11-11T21:50:42.061Z,13.03
2018-11-11T21:55:44.351Z,11.90
2018-11-11T22:00:46.701Z,13.05
2018-11-11T22:05:49.084Z,12.68
2018-11-11T22:10:51.946Z,11.73
2018-11-11T22:15:54.268Z,12.37
2018-11-11T22:20:56.576Z,12.75
2018-11-11T22:25:58.950Z,11.93
2018-11-11T22:31:01.241Z,12.45
2018-11-11T22:36:03.622Z,12.68
2018-11-11T22:41:05.921Z,12.55
2018-11-11T22:46:08.294Z,11.63
2018-11-11T22:51:10.609Z,11.83
2018-11-11T22:56:12.925Z,11.65
2018-11-11T23:01:21.219Z,11.83
2018-11-11T23:06:23.628Z,11.83
2018-11-11T23:11:25.981Z,11.38
2018-11-11T23:16:28.266Z,11.40
2018-11-11T23:21:30.576Z,10.72
2018-11-11T23:26:32.893Z,11.57
2018-11-11T23:31:35.222Z,10.72
2018-11-11T23:36:37.685Z,10.80
2018-11-11T23:41:39.990Z,10.48
2018-11-11T23:46:42.390Z,10.85
2018-11-11T23:51:44.684Z,10.68
2018-11-11T23:56:46.986Z,10.20
